Andrews, SC

11:40 PM EDT on September 01, 2014 (GMT -0400)
Spring Gully | Change Station
CLOSE
Current Station
Personal Weather Station
Location: Georgetown, SC
Elevation: 20 ft
Nearby Weather Stations

Elev 20 ft 33.38 °N, 79.42 °W | Updated 13 minutes ago

Clear
Clear
76.7 °F
Feels Like 77 °F
N
0.0
Wind Variable Wind from North
Gusts 0.0 mph

Today
High -- | Low -- °F
--% Chance of Precip.
Yesterday
High -- | Low -- °F
Precip. -- in
6:52 AM 7:43 PM
Waxing Crescent, 47% visible
Pressure 30.10 in
Visibility 10.0 miles
Clouds Clear
Heat Index 77 °F
Dew Point 76 °F
Humidity 99%
Rainfall 0.09 in
Snow Depth Not available.
UV 0 out of 12
Pollen 8.70 out of 12
Air Quality Not available.
Flu Activity Not available.
METAR KCKI 020335Z AUTO 00000KT 10SM CLR 25/24 A3010 RMK AO2

More Conditions Fewer Conditions

Pressure 30.10 in
Visibility 10.0 miles
Clouds Clear
Heat Index 77 °F
Dew Point 76 °F
Humidity 99%
Rainfall 0.09 in
Snow Depth Not available.
UV 0 out of 12
Pollen 8.70 out of 12
Air Quality Not available.
Flu Activity Not available.
METAR KCKI 020335Z AUTO 00000KT 10SM CLR 25/24 A3010 RMK AO2

More Conditions Fewer Conditions

10-Day Weather Forecast

Almanac

Astronomy

Sep. 01, 2014 Rise Set
Actual Time 6:52 AM EDT 7:43 PM EDT
Civil Twilight 6:26 AM EDT 8:08 PM EDT
Nautical Twilight 5:56 AM EDT 8:38 PM EDT
Astronomical Twilight 5:26 AM EDT 9:09 PM EDT
Moon 1:16 PM EDT (9/1) No Moon Set
Length of Visible Light 13h 41m
Length of Day
12h 51m
Tomorrow will be 2m 0s shorter.
Waxing Crescent, 47% of the Moon is Illuminated
Today
Waxing Crescent
Sep 2
First Quarter
Sep 8
Full
Sep 15
Last Quarter
Sep 24
New

Today's Extremes

State Highs State Lows

Community

WunderPhotos

Upload Photos

1,749,557 photos uploaded!

WunderBlogs® & News

Nearby

Snow Depth

Station Depth Elevation
No new snow has been reported.

Earthquake Activity

City Distance Mag. Time & Date
No recent earthquake activity has been reported nearby.
Minimum magnitude displayed is 2.5.

Coastal Water Temperatures

Place Temperature
Springmaid Pier, SC 84.0 °F

Nearby Weather Stations